Llwyngwril, United Kingdom
Current Conditions -  °F | °C
As of 1:50 PM on Saturday 22 Nov 2014 (Local Time) from EGOV Reporting Station
Clear Clear  
Wind Chill: 55°   Ceiling: Unl
Heat Index: 55°   Visibility: 6mi
Dew Point: 50°   Wind: 15mph
Humidity: 82%   Direction: 210°SSW
Pressure: 29.83"   Gusts: NA
Location:  52.67°N, 4.08°W
Report Text: EGOV 221350Z AUTO 21013KT 9999 NCD 13/10 Q1010
Loading
Personal Weather Stations






























Interactive Weather Map New forecast layout! Learn more

10-Day Weather Forecast

Advertisements
Track Severe Weather on mobile